Amherst, Colorado
Current Conditions -  °F | °C
As of 10:15 PM on Thursday 30 Oct 2014 (Local Time) from KHEQ Reporting Station
Clear Clear  
Wind Chill: 32°   Ceiling: Unl
Heat Index: 37°   Visibility: 10mi
Dew Point: 32°   Wind: 7mph
Humidity: 81%   Direction: 60°ENE
Pressure: 30.43"   Gusts: NA
Location:  40.68°N, 102.17°W
Report Text: KHEQ 310415Z AUTO 06006KT 10SM CLR 03/00 A3043 RMK AO2
Loading
Personal Weather Stations






























Interactive Weather Map
Tropical Storm Tracking
New forecast layout! Learn more

10-Day Weather Forecast

Advertisements
Track Severe Weather on mobile